sensor_id;sensor_type;location;lat;lon;timestamp;temperature;humidity
19180;DHT22;9722;48.754;8.868;2023-11-21T00:01:20;7.40;99.90
19180;DHT22;9722;48.754;8.868;2023-11-21T00:04:41;7.40;99.90
19180;DHT22;9722;48.754;8.868;2023-11-21T00:08:01;7.40;99.90
19180;DHT22;9722;48.754;8.868;2023-11-21T00:11:22;7.40;99.90
19180;DHT22;9722;48.754;8.868;2023-11-21T00:14:42;7.40;99.90
19180;DHT22;9722;48.754;8.868;2023-11-21T00:18:03;7.50;99.90
19180;DHT22;9722;48.754;8.868;2023-11-21T00:21:23;7.50;99.90
19180;DHT22;9722;48.754;8.868;2023-11-21T00:24:44;7.50;99.90
19180;DHT22;9722;48.754;8.868;2023-11-21T00:28:04;7.60;99.90
19180;DHT22;9722;48.754;8.868;2023-11-21T00:31:26;7.60;99.90
19180;DHT22;9722;48.754;8.868;2023-11-21T00:34:46;7.60;99.90
19180;DHT22;9722;48.754;8.868;2023-11-21T00:38:07;7.70;99.90
19180;DHT22;9722;48.754;8.868;2023-11-21T00:41:28;7.70;99.90
19180;DHT22;9722;48.754;8.868;2023-11-21T00:44:49;7.70;99.90
19180;DHT22;9722;48.754;8.868;2023-11-21T00:48:10;7.70;99.90
19180;DHT22;9722;48.754;8.868;2023-11-21T00:51:30;7.70;99.90
19180;DHT22;9722;48.754;8.868;2023-11-21T00:54:51;7.70;99.90
19180;DHT22;9722;48.754;8.868;2023-11-21T00:58:11;7.70;99.90
19180;DHT22;9722;48.754;8.868;2023-11-21T01:01:32;7.80;99.90
19180;DHT22;9722;48.754;8.868;2023-11-21T01:04:52;7.80;99.90
19180;DHT22;9722;48.754;8.868;2023-11-21T01:08:13;7.90;99.90
19180;DHT22;9722;48.754;8.868;2023-11-21T01:11:34;7.90;99.90
19180;DHT22;9722;48.754;8.868;2023-11-21T01:14:57;7.90;99.90
19180;DHT22;9722;48.754;8.868;2023-11-21T01:18:21;8.00;99.90
19180;DHT22;9722;48.754;8.868;2023-11-21T01:21:41;8.10;99.90
19180;DHT22;9722;48.754;8.868;2023-11-21T01:25:02;8.10;99.90
19180;DHT22;9722;48.754;8.868;2023-11-21T01:28:25;8.10;99.90
19180;DHT22;9722;48.754;8.868;2023-11-21T01:31:46;8.20;99.90
19180;DHT22;9722;48.754;8.868;2023-11-21T01:35:07;8.20;99.90
19180;DHT22;9722;48.754;8.868;2023-11-21T01:38:30;8.20;99.90
19180;DHT22;9722;48.754;8.868;2023-11-21T01:41:50;8.20;99.90
19180;DHT22;9722;48.754;8.868;2023-11-21T01:45:12;8.30;99.90
19180;DHT22;9722;48.754;8.868;2023-11-21T01:48:33;8.30;99.90
19180;DHT22;9722;48.754;8.868;2023-11-21T01:51:54;8.40;99.90
19180;DHT22;9722;48.754;8.868;2023-11-21T01:55:17;8.40;99.90
19180;DHT22;9722;48.754;8.868;2023-11-21T01:58:40;8.40;99.90
19180;DHT22;9722;48.754;8.868;2023-11-21T02:02:01;8.50;99.90
19180;DHT22;9722;48.754;8.868;2023-11-21T02:05:22;8.50;99.90
19180;DHT22;9722;48.754;8.868;2023-11-21T02:08:43;8.40;99.90
19180;DHT22;9722;48.754;8.868;2023-11-21T02:12:04;8.50;99.90
19180;DHT22;9722;48.754;8.868;2023-11-21T02:15:25;8.40;99.90
19180;DHT22;9722;48.754;8.868;2023-11-21T02:18:49;8.40;99.90
19180;DHT22;9722;48.754;8.868;2023-11-21T02:22:10;8.40;99.90
19180;DHT22;9722;48.754;8.868;2023-11-21T02:25:32;8.40;99.90
19180;DHT22;9722;48.754;8.868;2023-11-21T02:28:53;8.50;99.90
19180;DHT22;9722;48.754;8.868;2023-11-21T02:32:13;8.50;99.90
19180;DHT22;9722;48.754;8.868;2023-11-21T02:35:34;8.50;99.90
19180;DHT22;9722;48.754;8.868;2023-11-21T02:38:55;8.50;99.90
19180;DHT22;9722;48.754;8.868;2023-11-21T02:42:16;8.50;99.90
19180;DHT22;9722;48.754;8.868;2023-11-21T02:45:36;8.50;99.90
19180;DHT22;9722;48.754;8.868;2023-11-21T02:48:57;8.40;99.90
19180;DHT22;9722;48.754;8.868;2023-11-21T02:52:18;8.40;99.90
19180;DHT22;9722;48.754;8.868;2023-11-21T02:55:39;8.30;99.90
19180;DHT22;9722;48.754;8.868;2023-11-21T02:59:00;8.40;99.90
19180;DHT22;9722;48.754;8.868;2023-11-21T03:02:21;8.30;99.90
19180;DHT22;9722;48.754;8.868;2023-11-21T03:05:42;8.30;99.90
19180;DHT22;9722;48.754;8.868;2023-11-21T03:09:03;8.40;99.90
19180;DHT22;9722;48.754;8.868;2023-11-21T03:12:23;8.30;99.90
19180;DHT22;9722;48.754;8.868;2023-11-21T03:15:44;8.30;99.90
19180;DHT22;9722;48.754;8.868;2023-11-21T03:19:05;8.30;99.90
19180;DHT22;9722;48.754;8.868;2023-11-21T03:22:25;8.30;99.90
19180;DHT22;9722;48.754;8.868;2023-11-21T03:25:46;8.40;99.90
19180;DHT22;9722;48.754;8.868;2023-11-21T03:29:07;8.40;99.90
19180;DHT22;9722;48.754;8.868;2023-11-21T03:32:27;8.40;99.90
19180;DHT22;9722;48.754;8.868;2023-11-21T03:35:48;8.50;99.90
19180;DHT22;9722;48.754;8.868;2023-11-21T03:39:09;8.50;99.90
19180;DHT22;9722;48.754;8.868;2023-11-21T03:42:30;8.60;99.90
19180;DHT22;9722;48.754;8.868;2023-11-21T03:45:50;8.60;99.90
19180;DHT22;9722;48.754;8.868;2023-11-21T03:49:11;8.50;99.90
19180;DHT22;9722;48.754;8.868;2023-11-21T03:52:31;8.50;99.90
19180;DHT22;9722;48.754;8.868;2023-11-21T03:55:51;8.30;99.90
19180;DHT22;9722;48.754;8.868;2023-11-21T03:59:12;8.30;99.90
19180;DHT22;9722;48.754;8.868;2023-11-21T04:02:32;8.20;99.90
19180;DHT22;9722;48.754;8.868;2023-11-21T04:05:53;8.20;99.90
19180;DHT22;9722;48.754;8.868;2023-11-21T04:09:14;8.20;99.90
19180;DHT22;9722;48.754;8.868;2023-11-21T04:12:37;8.20;99.90
19180;DHT22;9722;48.754;8.868;2023-11-21T04:15:58;8.20;99.90
19180;DHT22;9722;48.754;8.868;2023-11-21T04:19:19;8.20;99.90
19180;DHT22;9722;48.754;8.868;2023-11-21T04:22:39;8.20;99.90
19180;DHT22;9722;48.754;8.868;2023-11-21T04:26:04;8.20;99.90
19180;DHT22;9722;48.754;8.868;2023-11-21T04:29:24;8.10;99.90
19180;DHT22;9722;48.754;8.868;2023-11-21T04:32:45;8.10;99.90
19180;DHT22;9722;48.754;8.868;2023-11-21T04:36:06;8.10;99.90
19180;DHT22;9722;48.754;8.868;2023-11-21T04:39:26;8.10;99.90
19180;DHT22;9722;48.754;8.868;2023-11-21T04:42:47;8.10;99.90
19180;DHT22;9722;48.754;8.868;2023-11-21T04:46:08;8.00;99.90
19180;DHT22;9722;48.754;8.868;2023-11-21T04:49:29;8.00;99.90
19180;DHT22;9722;48.754;8.868;2023-11-21T04:52:49;8.00;99.90
19180;DHT22;9722;48.754;8.868;2023-11-21T04:56:10;8.00;99.90
19180;DHT22;9722;48.754;8.868;2023-11-21T04:59:30;8.10;99.90
19180;DHT22;9722;48.754;8.868;2023-11-21T05:02:51;8.10;99.90
19180;DHT22;9722;48.754;8.868;2023-11-21T05:06:12;8.10;99.90
19180;DHT22;9722;48.754;8.868;2023-11-21T05:09:34;8.10;99.90
19180;DHT22;9722;48.754;8.868;2023-11-21T05:12:55;8.10;99.90
19180;DHT22;9722;48.754;8.868;2023-11-21T05:16:16;8.10;99.90
19180;DHT22;9722;48.754;8.868;2023-11-21T05:19:37;8.10;99.90
19180;DHT22;9722;48.754;8.868;2023-11-21T05:22:57;8.00;99.90
19180;DHT22;9722;48.754;8.868;2023-11-21T05:26:19;8.00;99.90
19180;DHT22;9722;48.754;8.868;2023-11-21T05:29:39;8.00;99.90
19180;DHT22;9722;48.754;8.868;2023-11-21T05:33:00;8.10;99.90
19180;DHT22;9722;48.754;8.868;2023-11-21T05:36:20;8.10;99.90
19180;DHT22;9722;48.754;8.868;2023-11-21T05:39:41;8.10;99.90
19180;DHT22;9722;48.754;8.868;2023-11-21T05:43:01;8.00;99.90
19180;DHT22;9722;48.754;8.868;2023-11-21T05:46:22;8.00;99.90
19180;DHT22;9722;48.754;8.868;2023-11-21T05:49:42;7.90;99.90
19180;DHT22;9722;48.754;8.868;2023-11-21T05:53:05;7.80;99.90
19180;DHT22;9722;48.754;8.868;2023-11-21T05:56:25;7.70;99.90
19180;DHT22;9722;48.754;8.868;2023-11-21T05:59:46;7.70;99.90
19180;DHT22;9722;48.754;8.868;2023-11-21T06:03:06;7.70;99.90
19180;DHT22;9722;48.754;8.868;2023-11-21T06:06:27;7.60;99.90
19180;DHT22;9722;48.754;8.868;2023-11-21T06:09:48;7.70;99.90
19180;DHT22;9722;48.754;8.868;2023-11-21T06:13:10;7.70;99.90
19180;DHT22;9722;48.754;8.868;2023-11-21T06:16:31;7.70;99.90
19180;DHT22;9722;48.754;8.868;2023-11-21T06:19:51;7.80;99.90
19180;DHT22;9722;48.754;8.868;2023-11-21T06:23:13;7.80;99.90
19180;DHT22;9722;48.754;8.868;2023-11-21T06:26:34;7.90;99.90
19180;DHT22;9722;48.754;8.868;2023-11-21T06:29:54;7.90;99.90
19180;DHT22;9722;48.754;8.868;2023-11-21T06:33:15;7.90;99.90
19180;DHT22;9722;48.754;8.868;2023-11-21T06:36:36;8.00;99.90
19180;DHT22;9722;48.754;8.868;2023-11-21T06:39:58;8.00;99.90
19180;DHT22;9722;48.754;8.868;2023-11-21T06:43:18;8.00;99.90
19180;DHT22;9722;48.754;8.868;2023-11-21T06:46:39;8.00;99.90
19180;DHT22;9722;48.754;8.868;2023-11-21T06:50:02;8.10;99.90
19180;DHT22;9722;48.754;8.868;2023-11-21T06:53:23;8.10;99.90
19180;DHT22;9722;48.754;8.868;2023-11-21T06:56:43;8.20;99.90
19180;DHT22;9722;48.754;8.868;2023-11-21T07:00:04;8.20;99.90
19180;DHT22;9722;48.754;8.868;2023-11-21T07:03:26;8.20;99.90
19180;DHT22;9722;48.754;8.868;2023-11-21T07:06:47;8.20;99.90
19180;DHT22;9722;48.754;8.868;2023-11-21T07:10:07;8.20;99.90
19180;DHT22;9722;48.754;8.868;2023-11-21T07:13:29;8.20;99.90
19180;DHT22;9722;48.754;8.868;2023-11-21T07:16:49;8.30;99.90
19180;DHT22;9722;48.754;8.868;2023-11-21T07:20:10;8.30;99.90
19180;DHT22;9722;48.754;8.868;2023-11-21T07:23:31;8.40;99.90
19180;DHT22;9722;48.754;8.868;2023-11-21T07:26:51;8.40;99.90
19180;DHT22;9722;48.754;8.868;2023-11-21T07:30:16;8.40;99.90
19180;DHT22;9722;48.754;8.868;2023-11-21T07:33:37;8.50;99.90
19180;DHT22;9722;48.754;8.868;2023-11-21T07:36:58;8.50;99.90
19180;DHT22;9722;48.754;8.868;2023-11-21T07:40:18;8.50;99.90
19180;DHT22;9722;48.754;8.868;2023-11-21T07:43:39;8.50;99.90
19180;DHT22;9722;48.754;8.868;2023-11-21T07:46:59;8.60;99.90
19180;DHT22;9722;48.754;8.868;2023-11-21T07:50:21;8.60;99.90
19180;DHT22;9722;48.754;8.868;2023-11-21T07:53:41;8.60;99.90
19180;DHT22;9722;48.754;8.868;2023-11-21T07:57:02;8.60;99.90
19180;DHT22;9722;48.754;8.868;2023-11-21T08:00:24;8.70;99.90
19180;DHT22;9722;48.754;8.868;2023-11-21T08:03:44;8.80;99.90
19180;DHT22;9722;48.754;8.868;2023-11-21T08:07:05;8.80;99.90
19180;DHT22;9722;48.754;8.868;2023-11-21T08:10:26;8.90;99.90
19180;DHT22;9722;48.754;8.868;2023-11-21T08:13:46;9.10;99.90
19180;DHT22;9722;48.754;8.868;2023-11-21T08:17:07;9.10;99.90
19180;DHT22;9722;48.754;8.868;2023-11-21T08:20:27;9.20;99.90
19180;DHT22;9722;48.754;8.868;2023-11-21T08:23:48;9.20;99.90
19180;DHT22;9722;48.754;8.868;2023-11-21T08:27:13;9.10;99.90
19180;DHT22;9722;48.754;8.868;2023-11-21T08:30:36;9.20;99.90
19180;DHT22;9722;48.754;8.868;2023-11-21T08:33:56;9.30;99.90
19180;DHT22;9722;48.754;8.868;2023-11-21T08:37:17;9.30;99.90
19180;DHT22;9722;48.754;8.868;2023-11-21T08:40:38;9.50;99.90
19180;DHT22;9722;48.754;8.868;2023-11-21T08:43:58;9.50;99.90
19180;DHT22;9722;48.754;8.868;2023-11-21T08:47:19;9.60;99.90
19180;DHT22;9722;48.754;8.868;2023-11-21T08:50:39;9.80;99.90
19180;DHT22;9722;48.754;8.868;2023-11-21T08:54:00;9.90;99.90
19180;DHT22;9722;48.754;8.868;2023-11-21T08:57:25;10.00;99.90
19180;DHT22;9722;48.754;8.868;2023-11-21T09:00:45;10.00;99.90
19180;DHT22;9722;48.754;8.868;2023-11-21T09:04:06;10.00;99.90
19180;DHT22;9722;48.754;8.868;2023-11-21T09:07:27;10.00;99.90
19180;DHT22;9722;48.754;8.868;2023-11-21T09:10:47;9.90;99.90
19180;DHT22;9722;48.754;8.868;2023-11-21T09:14:08;10.00;99.90
19180;DHT22;9722;48.754;8.868;2023-11-21T09:17:29;10.00;99.90
19180;DHT22;9722;48.754;8.868;2023-11-21T09:20:49;10.00;99.90
19180;DHT22;9722;48.754;8.868;2023-11-21T09:24:10;10.10;99.90
19180;DHT22;9722;48.754;8.868;2023-11-21T09:27:31;10.10;99.90
19180;DHT22;9722;48.754;8.868;2023-11-21T09:30:51;10.10;99.90
19180;DHT22;9722;48.754;8.868;2023-11-21T09:34:12;10.20;99.90
19180;DHT22;9722;48.754;8.868;2023-11-21T09:37:33;10.20;99.90
19180;DHT22;9722;48.754;8.868;2023-11-21T09:40:54;10.20;99.90
19180;DHT22;9722;48.754;8.868;2023-11-21T09:44:18;10.20;99.90
19180;DHT22;9722;48.754;8.868;2023-11-21T09:47:40;10.20;99.90
19180;DHT22;9722;48.754;8.868;2023-11-21T09:51:01;10.20;99.90
19180;DHT22;9722;48.754;8.868;2023-11-21T09:54:24;10.30;99.90
19180;DHT22;9722;48.754;8.868;2023-11-21T09:57:45;10.40;99.90
19180;DHT22;9722;48.754;8.868;2023-11-21T10:01:06;10.40;99.90
19180;DHT22;9722;48.754;8.868;2023-11-21T10:13:03;10.70;99.90
19180;DHT22;9722;48.754;8.868;2023-11-21T10:16:27;10.70;99.90
19180;DHT22;9722;48.754;8.868;2023-11-21T10:19:48;10.70;99.90
19180;DHT22;9722;48.754;8.868;2023-11-21T10:23:09;10.70;99.90
19180;DHT22;9722;48.754;8.868;2023-11-21T10:26:32;10.80;99.90
19180;DHT22;9722;48.754;8.868;2023-11-21T10:29:52;10.90;99.90
19180;DHT22;9722;48.754;8.868;2023-11-21T10:33:13;11.00;99.90
19180;DHT22;9722;48.754;8.868;2023-11-21T10:36:33;11.00;99.90
19180;DHT22;9722;48.754;8.868;2023-11-21T10:40:00;11.00;99.90
19180;DHT22;9722;48.754;8.868;2023-11-21T10:43:25;11.00;99.90
19180;DHT22;9722;48.754;8.868;2023-11-21T10:46:49;10.90;99.90
19180;DHT22;9722;48.754;8.868;2023-11-21T10:50:18;11.00;99.90
19180;DHT22;9722;48.754;8.868;2023-11-21T10:53:40;11.00;99.90
19180;DHT22;9722;48.754;8.868;2023-11-21T10:57:04;11.20;99.90
19180;DHT22;9722;48.754;8.868;2023-11-21T11:00:27;11.30;99.90
19180;DHT22;9722;48.754;8.868;2023-11-21T11:03:48;11.40;99.90
19180;DHT22;9722;48.754;8.868;2023-11-21T11:07:13;11.50;99.90
19180;DHT22;9722;48.754;8.868;2023-11-21T11:10:36;11.60;99.90
19180;DHT22;9722;48.754;8.868;2023-11-21T11:13:58;11.60;99.90
19180;DHT22;9722;48.754;8.868;2023-11-21T11:17:20;11.60;99.90
19180;DHT22;9722;48.754;8.868;2023-11-21T11:20:43;11.60;99.90
19180;DHT22;9722;48.754;8.868;2023-11-21T11:24:31;11.60;99.90
19180;DHT22;9722;48.754;8.868;2023-11-21T11:28:14;11.70;99.90
19180;DHT22;9722;48.754;8.868;2023-11-21T11:35:19;11.70;99.90
19180;DHT22;9722;48.754;8.868;2023-11-21T11:38:47;11.60;99.90
19180;DHT22;9722;48.754;8.868;2023-11-21T11:42:16;11.60;99.90
19180;DHT22;9722;48.754;8.868;2023-11-21T11:45:37;11.70;99.90
19180;DHT22;9722;48.754;8.868;2023-11-21T11:49:05;11.90;99.90
19180;DHT22;9722;48.754;8.868;2023-11-21T11:52:52;12.00;99.90
19180;DHT22;9722;48.754;8.868;2023-11-21T12:00:12;12.00;99.90
19180;DHT22;9722;48.754;8.868;2023-11-21T12:03:36;11.90;99.90
19180;DHT22;9722;48.754;8.868;2023-11-21T12:07:00;11.80;99.90
19180;DHT22;9722;48.754;8.868;2023-11-21T12:10:28;11.80;99.90
19180;DHT22;9722;48.754;8.868;2023-11-21T12:13:48;11.80;99.90
19180;DHT22;9722;48.754;8.868;2023-11-21T12:17:12;11.80;99.90
19180;DHT22;9722;48.754;8.868;2023-11-21T12:20:33;11.80;99.90
19180;DHT22;9722;48.754;8.868;2023-11-21T12:23:58;11.90;99.90
19180;DHT22;9722;48.754;8.868;2023-11-21T12:27:20;12.10;99.90
19180;DHT22;9722;48.754;8.868;2023-11-21T12:30:41;12.30;99.90
19180;DHT22;9722;48.754;8.868;2023-11-21T12:34:02;12.30;99.90
19180;DHT22;9722;48.754;8.868;2023-11-21T12:37:22;12.40;99.90
19180;DHT22;9722;48.754;8.868;2023-11-21T12:40:44;12.50;99.90
19180;DHT22;9722;48.754;8.868;2023-11-21T12:44:10;12.50;99.90
19180;DHT22;9722;48.754;8.868;2023-11-21T12:47:34;12.50;99.90
19180;DHT22;9722;48.754;8.868;2023-11-21T12:50:55;12.50;99.90
19180;DHT22;9722;48.754;8.868;2023-11-21T12:54:16;12.50;99.90
19180;DHT22;9722;48.754;8.868;2023-11-21T12:57:41;12.30;99.90
19180;DHT22;9722;48.754;8.868;2023-11-21T13:01:03;12.20;99.90
19180;DHT22;9722;48.754;8.868;2023-11-21T13:04:32;12.20;99.90
19180;DHT22;9722;48.754;8.868;2023-11-21T13:08:03;12.10;99.90
19180;DHT22;9722;48.754;8.868;2023-11-21T13:11:24;12.00;99.90
19180;DHT22;9722;48.754;8.868;2023-11-21T13:14:46;11.90;99.90
19180;DHT22;9722;48.754;8.868;2023-11-21T13:18:07;11.70;99.90
19180;DHT22;9722;48.754;8.868;2023-11-21T13:21:27;11.60;99.90
19180;DHT22;9722;48.754;8.868;2023-11-21T13:24:49;11.60;99.90
19180;DHT22;9722;48.754;8.868;2023-11-21T13:28:10;11.50;99.90
19180;DHT22;9722;48.754;8.868;2023-11-21T13:31:30;11.50;99.90
19180;DHT22;9722;48.754;8.868;2023-11-21T13:34:52;11.40;99.90
19180;DHT22;9722;48.754;8.868;2023-11-21T13:38:16;11.30;99.90
19180;DHT22;9722;48.754;8.868;2023-11-21T13:41:37;11.10;99.90
19180;DHT22;9722;48.754;8.868;2023-11-21T13:44:58;11.00;99.90
19180;DHT22;9722;48.754;8.868;2023-11-21T13:48:19;10.90;99.90
19180;DHT22;9722;48.754;8.868;2023-11-21T13:51:42;10.80;99.90
19180;DHT22;9722;48.754;8.868;2023-11-21T13:55:06;10.70;99.90
19180;DHT22;9722;48.754;8.868;2023-11-21T13:58:34;10.70;99.90
19180;DHT22;9722;48.754;8.868;2023-11-21T14:02:14;10.60;99.90
19180;DHT22;9722;48.754;8.868;2023-11-21T14:05:38;10.50;99.90
19180;DHT22;9722;48.754;8.868;2023-11-21T14:09:02;10.40;99.90
19180;DHT22;9722;48.754;8.868;2023-11-21T14:12:28;10.40;99.90
19180;DHT22;9722;48.754;8.868;2023-11-21T14:15:50;10.40;99.90
19180;DHT22;9722;48.754;8.868;2023-11-21T14:19:18;10.30;99.90
19180;DHT22;9722;48.754;8.868;2023-11-21T14:22:38;10.30;99.90
19180;DHT22;9722;48.754;8.868;2023-11-21T14:25:59;10.30;99.90
19180;DHT22;9722;48.754;8.868;2023-11-21T14:29:21;10.30;99.90
19180;DHT22;9722;48.754;8.868;2023-11-21T14:32:43;10.30;99.90
19180;DHT22;9722;48.754;8.868;2023-11-21T14:36:04;10.30;99.90
19180;DHT22;9722;48.754;8.868;2023-11-21T14:39:25;10.30;99.90
19180;DHT22;9722;48.754;8.868;2023-11-21T14:42:48;10.20;99.90
19180;DHT22;9722;48.754;8.868;2023-11-21T14:46:08;10.20;99.90
19180;DHT22;9722;48.754;8.868;2023-11-21T14:49:32;10.20;99.90
19180;DHT22;9722;48.754;8.868;2023-11-21T14:53:05;10.10;99.90
19180;DHT22;9722;48.754;8.868;2023-11-21T14:56:27;10.00;99.90
19180;DHT22;9722;48.754;8.868;2023-11-21T14:59:50;10.00;99.90
19180;DHT22;9722;48.754;8.868;2023-11-21T15:03:12;9.90;99.90
19180;DHT22;9722;48.754;8.868;2023-11-21T15:06:51;9.90;99.90
19180;DHT22;9722;48.754;8.868;2023-11-21T15:10:14;9.80;99.90
19180;DHT22;9722;48.754;8.868;2023-11-21T15:13:35;9.80;99.90
19180;DHT22;9722;48.754;8.868;2023-11-21T15:16:56;9.70;99.90
19180;DHT22;9722;48.754;8.868;2023-11-21T15:20:20;9.70;99.90
19180;DHT22;9722;48.754;8.868;2023-11-21T15:23:41;9.70;99.90
19180;DHT22;9722;48.754;8.868;2023-11-21T15:27:02;9.60;99.90
19180;DHT22;9722;48.754;8.868;2023-11-21T15:30:24;9.60;99.90
19180;DHT22;9722;48.754;8.868;2023-11-21T15:33:45;9.60;99.90
19180;DHT22;9722;48.754;8.868;2023-11-21T15:37:07;9.60;99.90
19180;DHT22;9722;48.754;8.868;2023-11-21T15:40:31;9.50;99.90
19180;DHT22;9722;48.754;8.868;2023-11-21T15:43:52;9.50;99.90
19180;DHT22;9722;48.754;8.868;2023-11-21T15:47:12;9.50;99.90
19180;DHT22;9722;48.754;8.868;2023-11-21T15:50:33;9.50;99.90
19180;DHT22;9722;48.754;8.868;2023-11-21T15:53:54;9.50;99.90
19180;DHT22;9722;48.754;8.868;2023-11-21T15:57:14;9.40;99.90
19180;DHT22;9722;48.754;8.868;2023-11-21T16:00:37;9.40;99.90
19180;DHT22;9722;48.754;8.868;2023-11-21T16:03:58;9.40;99.90
19180;DHT22;9722;48.754;8.868;2023-11-21T16:07:20;9.30;99.90
19180;DHT22;9722;48.754;8.868;2023-11-21T16:10:41;9.30;99.90
19180;DHT22;9722;48.754;8.868;2023-11-21T16:14:01;9.30;99.90
19180;DHT22;9722;48.754;8.868;2023-11-21T16:17:22;9.20;99.90
19180;DHT22;9722;48.754;8.868;2023-11-21T16:20:42;9.10;99.90
19180;DHT22;9722;48.754;8.868;2023-11-21T16:24:03;9.10;99.90
19180;DHT22;9722;48.754;8.868;2023-11-21T16:27:24;9.00;99.90
19180;DHT22;9722;48.754;8.868;2023-11-21T16:30:44;8.90;99.90
19180;DHT22;9722;48.754;8.868;2023-11-21T16:34:12;8.80;99.90
19180;DHT22;9722;48.754;8.868;2023-11-21T16:37:35;8.70;99.90
19180;DHT22;9722;48.754;8.868;2023-11-21T16:40:56;8.60;99.90
19180;DHT22;9722;48.754;8.868;2023-11-21T16:44:19;8.50;99.90
19180;DHT22;9722;48.754;8.868;2023-11-21T16:47:42;8.50;99.90
19180;DHT22;9722;48.754;8.868;2023-11-21T16:51:03;8.40;99.90
19180;DHT22;9722;48.754;8.868;2023-11-21T16:54:23;8.40;99.90
19180;DHT22;9722;48.754;8.868;2023-11-21T16:57:44;8.40;99.90
19180;DHT22;9722;48.754;8.868;2023-11-21T17:01:04;8.40;99.90
19180;DHT22;9722;48.754;8.868;2023-11-21T17:04:29;8.40;99.90
19180;DHT22;9722;48.754;8.868;2023-11-21T17:07:49;8.50;99.90
19180;DHT22;9722;48.754;8.868;2023-11-21T17:11:13;8.50;99.90
19180;DHT22;9722;48.754;8.868;2023-11-21T17:14:34;8.50;99.90
19180;DHT22;9722;48.754;8.868;2023-11-21T17:17:54;8.60;99.90
19180;DHT22;9722;48.754;8.868;2023-11-21T17:21:15;8.50;99.90
19180;DHT22;9722;48.754;8.868;2023-11-21T17:24:37;8.30;99.90
19180;DHT22;9722;48.754;8.868;2023-11-21T17:27:57;8.20;99.90
19180;DHT22;9722;48.754;8.868;2023-11-21T17:31:18;8.10;99.90
19180;DHT22;9722;48.754;8.868;2023-11-21T17:34:39;8.20;99.90
19180;DHT22;9722;48.754;8.868;2023-11-21T17:37:59;8.20;99.90
19180;DHT22;9722;48.754;8.868;2023-11-21T17:41:20;8.30;99.90
19180;DHT22;9722;48.754;8.868;2023-11-21T17:44:42;8.30;99.90
19180;DHT22;9722;48.754;8.868;2023-11-21T17:48:02;8.20;99.90
19180;DHT22;9722;48.754;8.868;2023-11-21T17:51:23;8.30;99.90
19180;DHT22;9722;48.754;8.868;2023-11-21T17:54:43;8.30;99.90
19180;DHT22;9722;48.754;8.868;2023-11-21T17:58:04;8.30;99.90
19180;DHT22;9722;48.754;8.868;2023-11-21T18:01:24;8.30;99.90
19180;DHT22;9722;48.754;8.868;2023-11-21T18:04:53;8.30;99.90
19180;DHT22;9722;48.754;8.868;2023-11-21T18:08:13;8.40;99.90
19180;DHT22;9722;48.754;8.868;2023-11-21T18:11:34;8.50;99.90
19180;DHT22;9722;48.754;8.868;2023-11-21T18:14:55;8.60;99.90
19180;DHT22;9722;48.754;8.868;2023-11-21T18:18:16;8.60;99.90
19180;DHT22;9722;48.754;8.868;2023-11-21T18:21:40;8.60;99.90
19180;DHT22;9722;48.754;8.868;2023-11-21T18:25:01;8.60;99.90
19180;DHT22;9722;48.754;8.868;2023-11-21T18:28:22;8.70;99.90
19180;DHT22;9722;48.754;8.868;2023-11-21T18:31:42;8.70;99.90
19180;DHT22;9722;48.754;8.868;2023-11-21T18:35:03;8.70;99.90
19180;DHT22;9722;48.754;8.868;2023-11-21T18:38:25;8.80;99.90
19180;DHT22;9722;48.754;8.868;2023-11-21T18:41:46;8.80;99.90
19180;DHT22;9722;48.754;8.868;2023-11-21T18:45:06;8.90;99.90
19180;DHT22;9722;48.754;8.868;2023-11-21T18:48:29;8.80;99.90
19180;DHT22;9722;48.754;8.868;2023-11-21T18:51:49;8.90;99.90
19180;DHT22;9722;48.754;8.868;2023-11-21T18:55:10;8.80;99.90
19180;DHT22;9722;48.754;8.868;2023-11-21T18:58:30;8.80;99.90
19180;DHT22;9722;48.754;8.868;2023-11-21T19:01:54;8.80;99.90
19180;DHT22;9722;48.754;8.868;2023-11-21T19:05:15;8.90;99.90
19180;DHT22;9722;48.754;8.868;2023-11-21T19:08:35;8.90;99.90
19180;DHT22;9722;48.754;8.868;2023-11-21T19:11:56;8.90;99.90
19180;DHT22;9722;48.754;8.868;2023-11-21T19:15:16;8.90;99.90
19180;DHT22;9722;48.754;8.868;2023-11-21T19:18:38;8.90;99.90
19180;DHT22;9722;48.754;8.868;2023-11-21T19:21:58;8.90;99.90
19180;DHT22;9722;48.754;8.868;2023-11-21T19:25:19;8.90;99.90
19180;DHT22;9722;48.754;8.868;2023-11-21T19:28:40;8.90;99.90
19180;DHT22;9722;48.754;8.868;2023-11-21T19:32:00;8.90;99.90
19180;DHT22;9722;48.754;8.868;2023-11-21T19:35:21;8.90;99.90
19180;DHT22;9722;48.754;8.868;2023-11-21T19:38:41;8.90;99.90
19180;DHT22;9722;48.754;8.868;2023-11-21T19:42:04;8.90;99.90
19180;DHT22;9722;48.754;8.868;2023-11-21T19:45:25;8.90;99.90
19180;DHT22;9722;48.754;8.868;2023-11-21T19:48:47;8.90;99.90
19180;DHT22;9722;48.754;8.868;2023-11-21T19:52:12;8.80;99.90
19180;DHT22;9722;48.754;8.868;2023-11-21T19:55:33;8.80;99.90
19180;DHT22;9722;48.754;8.868;2023-11-21T19:58:53;8.80;99.90
19180;DHT22;9722;48.754;8.868;2023-11-21T20:02:14;8.80;99.90
19180;DHT22;9722;48.754;8.868;2023-11-21T20:05:35;8.70;99.90
19180;DHT22;9722;48.754;8.868;2023-11-21T20:08:55;8.80;99.90
19180;DHT22;9722;48.754;8.868;2023-11-21T20:12:18;8.80;99.90
19180;DHT22;9722;48.754;8.868;2023-11-21T20:15:39;8.80;99.90
19180;DHT22;9722;48.754;8.868;2023-11-21T20:19:00;8.80;99.90
19180;DHT22;9722;48.754;8.868;2023-11-21T20:22:21;8.80;99.90
19180;DHT22;9722;48.754;8.868;2023-11-21T20:25:41;8.80;99.90
19180;DHT22;9722;48.754;8.868;2023-11-21T20:29:02;8.70;99.90
19180;DHT22;9722;48.754;8.868;2023-11-21T20:32:22;8.70;99.90
19180;DHT22;9722;48.754;8.868;2023-11-21T20:35:45;8.70;99.90
19180;DHT22;9722;48.754;8.868;2023-11-21T20:39:07;8.80;99.90
19180;DHT22;9722;48.754;8.868;2023-11-21T20:42:28;8.70;99.90
19180;DHT22;9722;48.754;8.868;2023-11-21T20:45:48;8.70;99.90
19180;DHT22;9722;48.754;8.868;2023-11-21T20:49:09;8.70;99.90
19180;DHT22;9722;48.754;8.868;2023-11-21T20:52:33;8.70;99.90
19180;DHT22;9722;48.754;8.868;2023-11-21T20:55:53;8.70;99.90
19180;DHT22;9722;48.754;8.868;2023-11-21T20:59:16;8.70;99.90
19180;DHT22;9722;48.754;8.868;2023-11-21T21:02:38;8.60;99.90
19180;DHT22;9722;48.754;8.868;2023-11-21T21:05:58;8.60;99.90
19180;DHT22;9722;48.754;8.868;2023-11-21T21:09:19;8.40;99.90
19180;DHT22;9722;48.754;8.868;2023-11-21T21:12:40;8.30;99.90
19180;DHT22;9722;48.754;8.868;2023-11-21T21:16:03;8.20;99.90
19180;DHT22;9722;48.754;8.868;2023-11-21T21:19:24;8.10;99.90
19180;DHT22;9722;48.754;8.868;2023-11-21T21:22:47;8.00;99.90
19180;DHT22;9722;48.754;8.868;2023-11-21T21:26:08;8.00;99.90
19180;DHT22;9722;48.754;8.868;2023-11-21T21:29:31;8.00;99.90
19180;DHT22;9722;48.754;8.868;2023-11-21T21:32:51;8.00;99.90
19180;DHT22;9722;48.754;8.868;2023-11-21T21:36:13;8.10;99.90
19180;DHT22;9722;48.754;8.868;2023-11-21T21:39:33;8.10;99.90
19180;DHT22;9722;48.754;8.868;2023-11-21T21:42:57;8.20;99.90
19180;DHT22;9722;48.754;8.868;2023-11-21T21:46:19;8.20;99.90
19180;DHT22;9722;48.754;8.868;2023-11-21T21:49:41;8.20;99.90
19180;DHT22;9722;48.754;8.868;2023-11-21T21:53:01;8.20;99.90
19180;DHT22;9722;48.754;8.868;2023-11-21T21:56:22;8.20;99.90
19180;DHT22;9722;48.754;8.868;2023-11-21T21:59:42;8.30;99.90
19180;DHT22;9722;48.754;8.868;2023-11-21T22:03:03;8.30;99.90
19180;DHT22;9722;48.754;8.868;2023-11-21T22:06:24;8.30;99.90